sensor_id;sensor_type;location;lat;lon;timestamp;P1;durP1;ratioP1;P2;durP2;ratioP2
27612;SDS011;15036;48.094;-1.690;2023-04-25T00:01:02;17.85;;;5.85;;
27612;SDS011;15036;48.094;-1.690;2023-04-25T00:03:28;17.90;;;5.90;;
27612;SDS011;15036;48.094;-1.690;2023-04-25T00:05:54;17.50;;;5.63;;
27612;SDS011;15036;48.094;-1.690;2023-04-25T00:08:21;19.85;;;5.82;;
27612;SDS011;15036;48.094;-1.690;2023-04-25T00:10:47;18.15;;;5.70;;
27612;SDS011;15036;48.094;-1.690;2023-04-25T00:13:13;15.80;;;5.60;;
27612;SDS011;15036;48.094;-1.690;2023-04-25T00:15:39;13.98;;;5.45;;
27612;SDS011;15036;48.094;-1.690;2023-04-25T00:18:06;14.48;;;5.50;;
27612;SDS011;15036;48.094;-1.690;2023-04-25T00:20:32;11.95;;;4.70;;
27612;SDS011;15036;48.094;-1.690;2023-04-25T00:22:57;15.13;;;4.88;;
27612;SDS011;15036;48.094;-1.690;2023-04-25T00:25:22;15.02;;;4.68;;
27612;SDS011;15036;48.094;-1.690;2023-04-25T00:27:48;15.15;;;5.25;;
27612;SDS011;15036;48.094;-1.690;2023-04-25T00:30:13;18.02;;;5.40;;
27612;SDS011;15036;48.094;-1.690;2023-04-25T00:32:39;12.52;;;5.28;;
27612;SDS011;15036;48.094;-1.690;2023-04-25T00:35:05;11.60;;;4.90;;
27612;SDS011;15036;48.094;-1.690;2023-04-25T00:37:31;14.38;;;4.97;;
27612;SDS011;15036;48.094;-1.690;2023-04-25T00:39:57;16.85;;;4.88;;
27612;SDS011;15036;48.094;-1.690;2023-04-25T00:42:24;13.73;;;4.43;;
27612;SDS011;15036;48.094;-1.690;2023-04-25T00:44:51;11.70;;;4.45;;
27612;SDS011;15036;48.094;-1.690;2023-04-25T00:47:17;9.35;;;4.63;;
27612;SDS011;15036;48.094;-1.690;2023-04-25T00:49:43;11.07;;;4.85;;
27612;SDS011;15036;48.094;-1.690;2023-04-25T00:52:09;16.95;;;5.00;;
27612;SDS011;15036;48.094;-1.690;2023-04-25T00:54:35;17.38;;;4.88;;
27612;SDS011;15036;48.094;-1.690;2023-04-25T00:57:01;16.48;;;5.15;;
27612;SDS011;15036;48.094;-1.690;2023-04-25T00:59:27;14.32;;;4.90;;
27612;SDS011;15036;48.094;-1.690;2023-04-25T01:01:54;13.55;;;4.82;;
27612;SDS011;15036;48.094;-1.690;2023-04-25T01:04:20;15.05;;;4.85;;
27612;SDS011;15036;48.094;-1.690;2023-04-25T01:06:46;15.65;;;5.03;;
27612;SDS011;15036;48.094;-1.690;2023-04-25T01:09:11;15.27;;;5.13;;
27612;SDS011;15036;48.094;-1.690;2023-04-25T01:11:37;16.05;;;5.40;;
27612;SDS011;15036;48.094;-1.690;2023-04-25T01:14:05;14.85;;;5.05;;
27612;SDS011;15036;48.094;-1.690;2023-04-25T01:16:30;11.63;;;5.13;;
27612;SDS011;15036;48.094;-1.690;2023-04-25T01:18:56;13.43;;;5.35;;
27612;SDS011;15036;48.094;-1.690;2023-04-25T01:21:22;11.82;;;4.88;;
27612;SDS011;15036;48.094;-1.690;2023-04-25T01:23:48;15.63;;;5.10;;
27612;SDS011;15036;48.094;-1.690;2023-04-25T01:26:13;13.88;;;5.50;;
27612;SDS011;15036;48.094;-1.690;2023-04-25T01:28:40;15.38;;;5.22;;
27612;SDS011;15036;48.094;-1.690;2023-04-25T01:31:06;17.48;;;5.70;;
27612;SDS011;15036;48.094;-1.690;2023-04-25T01:33:32;13.43;;;5.32;;
27612;SDS011;15036;48.094;-1.690;2023-04-25T01:35:57;15.70;;;5.43;;
27612;SDS011;15036;48.094;-1.690;2023-04-25T01:38:23;15.02;;;5.30;;
27612;SDS011;15036;48.094;-1.690;2023-04-25T01:40:48;16.70;;;5.50;;
27612;SDS011;15036;48.094;-1.690;2023-04-25T01:43:15;12.25;;;5.20;;
27612;SDS011;15036;48.094;-1.690;2023-04-25T01:45:41;12.38;;;4.90;;
27612;SDS011;15036;48.094;-1.690;2023-04-25T01:48:08;15.00;;;5.10;;
27612;SDS011;15036;48.094;-1.690;2023-04-25T01:50:34;13.05;;;5.88;;
27612;SDS011;15036;48.094;-1.690;2023-04-25T01:52:59;11.48;;;5.10;;
27612;SDS011;15036;48.094;-1.690;2023-04-25T01:55:26;13.05;;;5.35;;
27612;SDS011;15036;48.094;-1.690;2023-04-25T01:57:52;17.95;;;5.47;;
27612;SDS011;15036;48.094;-1.690;2023-04-25T02:00:17;19.38;;;5.45;;
27612;SDS011;15036;48.094;-1.690;2023-04-25T02:02:43;17.17;;;6.00;;
27612;SDS011;15036;48.094;-1.690;2023-04-25T02:05:08;16.77;;;5.63;;
27612;SDS011;15036;48.094;-1.690;2023-04-25T02:07:34;14.52;;;5.20;;
27612;SDS011;15036;48.094;-1.690;2023-04-25T02:09:59;15.48;;;5.50;;
27612;SDS011;15036;48.094;-1.690;2023-04-25T02:12:25;17.35;;;5.47;;
27612;SDS011;15036;48.094;-1.690;2023-04-25T02:14:51;18.60;;;5.97;;
27612;SDS011;15036;48.094;-1.690;2023-04-25T02:17:16;12.82;;;5.20;;
27612;SDS011;15036;48.094;-1.690;2023-04-25T02:19:42;18.67;;;5.75;;
27612;SDS011;15036;48.094;-1.690;2023-04-25T02:22:08;15.95;;;5.85;;
27612;SDS011;15036;48.094;-1.690;2023-04-25T02:24:33;15.38;;;5.35;;
27612;SDS011;15036;48.094;-1.690;2023-04-25T02:26:59;14.80;;;5.47;;
27612;SDS011;15036;48.094;-1.690;2023-04-25T02:29:25;15.60;;;5.75;;
27612;SDS011;15036;48.094;-1.690;2023-04-25T02:31:50;13.95;;;5.22;;
27612;SDS011;15036;48.094;-1.690;2023-04-25T02:34:16;15.80;;;5.05;;
27612;SDS011;15036;48.094;-1.690;2023-04-25T02:36:41;12.10;;;5.72;;
27612;SDS011;15036;48.094;-1.690;2023-04-25T02:39:06;17.15;;;5.68;;
27612;SDS011;15036;48.094;-1.690;2023-04-25T02:41:32;15.45;;;6.03;;
27612;SDS011;15036;48.094;-1.690;2023-04-25T02:43:57;19.13;;;5.55;;
27612;SDS011;15036;48.094;-1.690;2023-04-25T02:46:22;11.10;;;5.22;;
27612;SDS011;15036;48.094;-1.690;2023-04-25T02:48:48;24.30;;;6.57;;
27612;SDS011;15036;48.094;-1.690;2023-04-25T02:51:13;15.00;;;5.47;;
27612;SDS011;15036;48.094;-1.690;2023-04-25T02:53:41;14.70;;;5.90;;
27612;SDS011;15036;48.094;-1.690;2023-04-25T02:56:06;16.02;;;6.10;;
27612;SDS011;15036;48.094;-1.690;2023-04-25T02:58:31;17.80;;;6.35;;
27612;SDS011;15036;48.094;-1.690;2023-04-25T03:00:57;17.08;;;5.97;;
27612;SDS011;15036;48.094;-1.690;2023-04-25T03:03:22;14.27;;;6.45;;
27612;SDS011;15036;48.094;-1.690;2023-04-25T03:05:51;17.00;;;5.88;;
27612;SDS011;15036;48.094;-1.690;2023-04-25T03:08:17;17.70;;;6.20;;
27612;SDS011;15036;48.094;-1.690;2023-04-25T03:10:43;16.55;;;5.97;;
27612;SDS011;15036;48.094;-1.690;2023-04-25T03:13:09;15.45;;;5.70;;
27612;SDS011;15036;48.094;-1.690;2023-04-25T03:15:34;18.23;;;6.25;;
27612;SDS011;15036;48.094;-1.690;2023-04-25T03:18:01;13.43;;;5.80;;
27612;SDS011;15036;48.094;-1.690;2023-04-25T03:20:26;17.33;;;5.60;;
27612;SDS011;15036;48.094;-1.690;2023-04-25T03:22:52;16.23;;;6.57;;
27612;SDS011;15036;48.094;-1.690;2023-04-25T03:25:17;15.23;;;5.68;;
27612;SDS011;15036;48.094;-1.690;2023-04-25T03:27:43;17.10;;;5.97;;
27612;SDS011;15036;48.094;-1.690;2023-04-25T03:30:08;14.55;;;5.72;;
27612;SDS011;15036;48.094;-1.690;2023-04-25T03:32:34;16.98;;;6.03;;
27612;SDS011;15036;48.094;-1.690;2023-04-25T03:34:59;13.43;;;5.88;;
27612;SDS011;15036;48.094;-1.690;2023-04-25T03:37:25;12.30;;;5.70;;
27612;SDS011;15036;48.094;-1.690;2023-04-25T03:39:50;14.55;;;6.72;;
27612;SDS011;15036;48.094;-1.690;2023-04-25T03:42:16;13.40;;;5.78;;
27612;SDS011;15036;48.094;-1.690;2023-04-25T03:44:41;14.95;;;5.85;;
27612;SDS011;15036;48.094;-1.690;2023-04-25T03:47:07;17.52;;;6.35;;
27612;SDS011;15036;48.094;-1.690;2023-04-25T03:49:32;16.15;;;6.35;;
27612;SDS011;15036;48.094;-1.690;2023-04-25T03:51:59;18.45;;;6.50;;
27612;SDS011;15036;48.094;-1.690;2023-04-25T03:54:25;17.70;;;6.88;;
27612;SDS011;15036;48.094;-1.690;2023-04-25T03:56:50;19.77;;;7.22;;
27612;SDS011;15036;48.094;-1.690;2023-04-25T03:59:17;22.45;;;6.78;;
27612;SDS011;15036;48.094;-1.690;2023-04-25T04:01:42;13.88;;;6.28;;
27612;SDS011;15036;48.094;-1.690;2023-04-25T04:04:08;15.90;;;6.82;;
27612;SDS011;15036;48.094;-1.690;2023-04-25T04:06:33;16.17;;;6.65;;
27612;SDS011;15036;48.094;-1.690;2023-04-25T04:09:00;16.10;;;6.35;;
27612;SDS011;15036;48.094;-1.690;2023-04-25T04:11:25;17.80;;;6.82;;
27612;SDS011;15036;48.094;-1.690;2023-04-25T04:13:51;20.88;;;6.95;;
27612;SDS011;15036;48.094;-1.690;2023-04-25T04:16:16;15.25;;;6.50;;
27612;SDS011;15036;48.094;-1.690;2023-04-25T04:18:41;15.32;;;6.60;;
27612;SDS011;15036;48.094;-1.690;2023-04-25T04:21:07;17.55;;;7.22;;
27612;SDS011;15036;48.094;-1.690;2023-04-25T04:23:32;14.27;;;6.70;;
27612;SDS011;15036;48.094;-1.690;2023-04-25T04:25:58;16.58;;;7.47;;
27612;SDS011;15036;48.094;-1.690;2023-04-25T04:28:24;21.02;;;7.25;;
27612;SDS011;15036;48.094;-1.690;2023-04-25T04:30:50;14.77;;;7.32;;
27612;SDS011;15036;48.094;-1.690;2023-04-25T04:33:17;12.95;;;7.00;;
27612;SDS011;15036;48.094;-1.690;2023-04-25T04:35:45;16.63;;;6.65;;
27612;SDS011;15036;48.094;-1.690;2023-04-25T04:38:12;13.38;;;6.97;;
27612;SDS011;15036;48.094;-1.690;2023-04-25T04:40:39;20.25;;;8.23;;
27612;SDS011;15036;48.094;-1.690;2023-04-25T04:43:06;18.17;;;8.02;;
27612;SDS011;15036;48.094;-1.690;2023-04-25T04:45:33;21.40;;;7.43;;
27612;SDS011;15036;48.094;-1.690;2023-04-25T04:47:59;17.15;;;7.40;;
27612;SDS011;15036;48.094;-1.690;2023-04-25T04:50:24;18.67;;;7.65;;
27612;SDS011;15036;48.094;-1.690;2023-04-25T04:52:50;15.43;;;7.38;;
27612;SDS011;15036;48.094;-1.690;2023-04-25T04:55:15;17.08;;;7.72;;
27612;SDS011;15036;48.094;-1.690;2023-04-25T04:57:41;19.08;;;7.72;;
27612;SDS011;15036;48.094;-1.690;2023-04-25T05:00:07;13.98;;;7.63;;
27612;SDS011;15036;48.094;-1.690;2023-04-25T05:02:36;15.13;;;7.95;;
27612;SDS011;15036;48.094;-1.690;2023-04-25T05:05:02;17.65;;;7.30;;
27612;SDS011;15036;48.094;-1.690;2023-04-25T05:07:27;19.55;;;7.90;;
27612;SDS011;15036;48.094;-1.690;2023-04-25T05:09:53;21.02;;;8.00;;
27612;SDS011;15036;48.094;-1.690;2023-04-25T05:12:18;21.30;;;7.85;;
27612;SDS011;15036;48.094;-1.690;2023-04-25T05:14:43;16.52;;;7.43;;
27612;SDS011;15036;48.094;-1.690;2023-04-25T05:17:09;17.92;;;8.07;;
27612;SDS011;15036;48.094;-1.690;2023-04-25T05:19:34;14.52;;;7.93;;
27612;SDS011;15036;48.094;-1.690;2023-04-25T05:22:00;13.02;;;7.45;;
27612;SDS011;15036;48.094;-1.690;2023-04-25T05:24:25;18.60;;;7.68;;
27612;SDS011;15036;48.094;-1.690;2023-04-25T05:26:51;20.85;;;7.97;;
27612;SDS011;15036;48.094;-1.690;2023-04-25T05:29:16;15.88;;;6.80;;
27612;SDS011;15036;48.094;-1.690;2023-04-25T05:31:41;18.95;;;8.05;;
27612;SDS011;15036;48.094;-1.690;2023-04-25T05:34:07;15.07;;;8.15;;
27612;SDS011;15036;48.094;-1.690;2023-04-25T05:36:33;16.13;;;8.13;;
27612;SDS011;15036;48.094;-1.690;2023-04-25T05:38:58;14.20;;;7.40;;
27612;SDS011;15036;48.094;-1.690;2023-04-25T05:41:24;16.38;;;7.90;;
27612;SDS011;15036;48.094;-1.690;2023-04-25T05:43:49;20.90;;;7.85;;
27612;SDS011;15036;48.094;-1.690;2023-04-25T05:46:15;18.55;;;8.10;;
27612;SDS011;15036;48.094;-1.690;2023-04-25T05:48:43;17.00;;;8.10;;
27612;SDS011;15036;48.094;-1.690;2023-04-25T05:51:08;14.38;;;7.60;;
27612;SDS011;15036;48.094;-1.690;2023-04-25T05:53:34;17.08;;;7.35;;
27612;SDS011;15036;48.094;-1.690;2023-04-25T05:56:01;20.75;;;7.95;;
27612;SDS011;15036;48.094;-1.690;2023-04-25T05:58:26;14.25;;;7.80;;
27612;SDS011;15036;48.094;-1.690;2023-04-25T06:00:52;17.55;;;8.25;;
27612;SDS011;15036;48.094;-1.690;2023-04-25T06:03:17;16.30;;;7.88;;
27612;SDS011;15036;48.094;-1.690;2023-04-25T06:05:42;19.92;;;10.27;;
27612;SDS011;15036;48.094;-1.690;2023-04-25T06:08:08;17.52;;;8.52;;
27612;SDS011;15036;48.094;-1.690;2023-04-25T06:10:34;12.85;;;7.30;;
27612;SDS011;15036;48.094;-1.690;2023-04-25T06:13:00;12.68;;;7.75;;
27612;SDS011;15036;48.094;-1.690;2023-04-25T06:15:26;17.75;;;7.70;;
27612;SDS011;15036;48.094;-1.690;2023-04-25T06:17:51;12.55;;;7.38;;
27612;SDS011;15036;48.094;-1.690;2023-04-25T06:20:16;16.05;;;7.53;;
27612;SDS011;15036;48.094;-1.690;2023-04-25T06:22:42;13.45;;;7.47;;
27612;SDS011;15036;48.094;-1.690;2023-04-25T06:25:07;15.15;;;9.68;;
27612;SDS011;15036;48.094;-1.690;2023-04-25T06:27:33;18.50;;;8.25;;
27612;SDS011;15036;48.094;-1.690;2023-04-25T06:29:59;15.73;;;7.80;;
27612;SDS011;15036;48.094;-1.690;2023-04-25T06:32:24;13.02;;;7.03;;
27612;SDS011;15036;48.094;-1.690;2023-04-25T06:34:51;15.43;;;8.27;;
27612;SDS011;15036;48.094;-1.690;2023-04-25T06:37:16;14.88;;;8.10;;
27612;SDS011;15036;48.094;-1.690;2023-04-25T06:39:41;16.75;;;9.27;;
27612;SDS011;15036;48.094;-1.690;2023-04-25T06:42:07;23.73;;;9.18;;
27612;SDS011;15036;48.094;-1.690;2023-04-25T06:44:33;16.30;;;8.70;;
27612;SDS011;15036;48.094;-1.690;2023-04-25T06:46:58;17.05;;;7.90;;
27612;SDS011;15036;48.094;-1.690;2023-04-25T06:49:23;16.90;;;8.45;;
27612;SDS011;15036;48.094;-1.690;2023-04-25T06:51:49;16.50;;;8.52;;
27612;SDS011;15036;48.094;-1.690;2023-04-25T06:54:14;16.02;;;8.13;;
27612;SDS011;15036;48.094;-1.690;2023-04-25T06:56:40;17.55;;;8.65;;
27612;SDS011;15036;48.094;-1.690;2023-04-25T06:59:05;16.65;;;8.35;;
27612;SDS011;15036;48.094;-1.690;2023-04-25T07:01:30;14.80;;;8.50;;
27612;SDS011;15036;48.094;-1.690;2023-04-25T07:03:56;14.40;;;8.57;;
27612;SDS011;15036;48.094;-1.690;2023-04-25T07:06:21;18.48;;;8.82;;
27612;SDS011;15036;48.094;-1.690;2023-04-25T07:08:47;15.63;;;8.27;;
27612;SDS011;15036;48.094;-1.690;2023-04-25T07:11:14;17.10;;;8.98;;
27612;SDS011;15036;48.094;-1.690;2023-04-25T07:13:39;15.48;;;8.68;;
27612;SDS011;15036;48.094;-1.690;2023-04-25T07:16:05;14.18;;;7.95;;
27612;SDS011;15036;48.094;-1.690;2023-04-25T07:18:30;16.70;;;8.57;;
27612;SDS011;15036;48.094;-1.690;2023-04-25T07:20:56;13.90;;;7.80;;
27612;SDS011;15036;48.094;-1.690;2023-04-25T07:23:21;13.40;;;7.90;;
27612;SDS011;15036;48.094;-1.690;2023-04-25T07:25:47;12.57;;;7.50;;
27612;SDS011;15036;48.094;-1.690;2023-04-25T07:28:12;17.30;;;7.88;;
27612;SDS011;15036;48.094;-1.690;2023-04-25T07:30:37;11.52;;;7.35;;
27612;SDS011;15036;48.094;-1.690;2023-04-25T07:33:03;14.70;;;8.38;;
27612;SDS011;15036;48.094;-1.690;2023-04-25T07:35:28;15.95;;;8.13;;
27612;SDS011;15036;48.094;-1.690;2023-04-25T07:37:54;13.18;;;7.57;;
27612;SDS011;15036;48.094;-1.690;2023-04-25T07:40:20;13.15;;;8.25;;
27612;SDS011;15036;48.094;-1.690;2023-04-25T07:42:46;17.00;;;8.10;;
27612;SDS011;15036;48.094;-1.690;2023-04-25T07:45:12;14.77;;;8.98;;
27612;SDS011;15036;48.094;-1.690;2023-04-25T07:47:37;14.27;;;8.63;;
27612;SDS011;15036;48.094;-1.690;2023-04-25T07:50:03;15.32;;;8.15;;
27612;SDS011;15036;48.094;-1.690;2023-04-25T07:52:29;11.20;;;7.43;;
27612;SDS011;15036;48.094;-1.690;2023-04-25T07:54:54;12.18;;;8.13;;
27612;SDS011;15036;48.094;-1.690;2023-04-25T07:57:20;12.70;;;7.47;;
27612;SDS011;15036;48.094;-1.690;2023-04-25T07:59:45;10.73;;;7.20;;
27612;SDS011;15036;48.094;-1.690;2023-04-25T08:02:10;10.13;;;7.28;;
27612;SDS011;15036;48.094;-1.690;2023-04-25T08:04:36;15.50;;;7.45;;
27612;SDS011;15036;48.094;-1.690;2023-04-25T08:07:01;12.30;;;6.68;;
27612;SDS011;15036;48.094;-1.690;2023-04-25T08:09:26;10.48;;;6.20;;
27612;SDS011;15036;48.094;-1.690;2023-04-25T08:11:52;11.20;;;6.43;;
27612;SDS011;15036;48.094;-1.690;2023-04-25T08:14:17;9.98;;;6.03;;
27612;SDS011;15036;48.094;-1.690;2023-04-25T08:16:43;9.73;;;5.60;;
27612;SDS011;15036;48.094;-1.690;2023-04-25T08:19:09;9.43;;;5.22;;
27612;SDS011;15036;48.094;-1.690;2023-04-25T08:21:35;10.10;;;5.20;;
27612;SDS011;15036;48.094;-1.690;2023-04-25T08:24:01;9.23;;;5.28;;
27612;SDS011;15036;48.094;-1.690;2023-04-25T08:26:27;7.88;;;4.97;;
27612;SDS011;15036;48.094;-1.690;2023-04-25T08:28:53;9.43;;;4.82;;
27612;SDS011;15036;48.094;-1.690;2023-04-25T08:31:19;8.82;;;4.70;;
27612;SDS011;15036;48.094;-1.690;2023-04-25T08:33:44;9.95;;;4.68;;
27612;SDS011;15036;48.094;-1.690;2023-04-25T08:36:10;8.32;;;4.68;;
27612;SDS011;15036;48.094;-1.690;2023-04-25T08:38:35;9.18;;;5.07;;
27612;SDS011;15036;48.094;-1.690;2023-04-25T08:41:01;8.80;;;4.50;;
27612;SDS011;15036;48.094;-1.690;2023-04-25T08:43:28;8.88;;;5.07;;
27612;SDS011;15036;48.094;-1.690;2023-04-25T08:45:58;7.22;;;4.60;;
27612;SDS011;15036;48.094;-1.690;2023-04-25T08:48:28;9.15;;;4.82;;
27612;SDS011;15036;48.094;-1.690;2023-04-25T08:50:55;8.00;;;4.82;;
27612;SDS011;15036;48.094;-1.690;2023-04-25T08:53:28;10.25;;;5.18;;
27612;SDS011;15036;48.094;-1.690;2023-04-25T08:55:55;7.88;;;5.00;;
27612;SDS011;15036;48.094;-1.690;2023-04-25T08:58:22;10.77;;;5.00;;
27612;SDS011;15036;48.094;-1.690;2023-04-25T09:00:48;9.38;;;4.82;;
27612;SDS011;15036;48.094;-1.690;2023-04-25T09:03:14;9.55;;;5.03;;
27612;SDS011;15036;48.094;-1.690;2023-04-25T09:05:40;7.93;;;4.97;;
27612;SDS011;15036;48.094;-1.690;2023-04-25T09:08:06;6.80;;;4.80;;
27612;SDS011;15036;48.094;-1.690;2023-04-25T09:10:32;13.68;;;8.50;;
27612;SDS011;15036;48.094;-1.690;2023-04-25T09:13:13;15.27;;;7.25;;
27612;SDS011;15036;48.094;-1.690;2023-04-25T09:15:46;8.10;;;4.70;;
27612;SDS011;15036;48.094;-1.690;2023-04-25T09:18:13;7.03;;;4.20;;
27612;SDS011;15036;48.094;-1.690;2023-04-25T09:20:47;6.68;;;3.90;;
27612;SDS011;15036;48.094;-1.690;2023-04-25T09:23:14;8.52;;;4.43;;
27612;SDS011;15036;48.094;-1.690;2023-04-25T09:25:40;6.78;;;3.70;;
27612;SDS011;15036;48.094;-1.690;2023-04-25T09:28:06;7.30;;;4.00;;
27612;SDS011;15036;48.094;-1.690;2023-04-25T09:30:35;5.75;;;4.03;;
27612;SDS011;15036;48.094;-1.690;2023-04-25T09:33:07;6.68;;;4.18;;
27612;SDS011;15036;48.094;-1.690;2023-04-25T09:38:07;6.07;;;4.00;;
27612;SDS011;15036;48.094;-1.690;2023-04-25T09:40:33;10.50;;;4.40;;
27612;SDS011;15036;48.094;-1.690;2023-04-25T09:43:05;7.97;;;4.70;;
27612;SDS011;15036;48.094;-1.690;2023-04-25T09:48:06;6.35;;;4.55;;
27612;SDS011;15036;48.094;-1.690;2023-04-25T09:50:32;9.00;;;4.57;;
27612;SDS011;15036;48.094;-1.690;2023-04-25T09:53:03;6.95;;;4.75;;
27612;SDS011;15036;48.094;-1.690;2023-04-25T09:55:31;6.72;;;4.45;;
27612;SDS011;15036;48.094;-1.690;2023-04-25T09:57:57;8.25;;;4.55;;
27612;SDS011;15036;48.094;-1.690;2023-04-25T10:00:32;6.70;;;3.75;;
27612;SDS011;15036;48.094;-1.690;2023-04-25T10:02:58;5.85;;;3.55;;
27612;SDS011;15036;48.094;-1.690;2023-04-25T10:05:28;6.78;;;3.88;;
27612;SDS011;15036;48.094;-1.690;2023-04-25T10:07:58;5.93;;;3.58;;
27612;SDS011;15036;48.094;-1.690;2023-04-25T10:10:26;6.22;;;3.60;;
27612;SDS011;15036;48.094;-1.690;2023-04-25T10:12:53;5.93;;;3.90;;
27612;SDS011;15036;48.094;-1.690;2023-04-25T10:15:19;6.55;;;3.47;;
27612;SDS011;15036;48.094;-1.690;2023-04-25T10:17:46;8.07;;;4.32;;
27612;SDS011;15036;48.094;-1.690;2023-04-25T10:20:13;5.63;;;3.90;;
27612;SDS011;15036;48.094;-1.690;2023-04-25T10:22:39;8.95;;;4.03;;
27612;SDS011;15036;48.094;-1.690;2023-04-25T10:25:07;6.93;;;3.67;;
27612;SDS011;15036;48.094;-1.690;2023-04-25T10:27:34;8.10;;;3.75;;
27612;SDS011;15036;48.094;-1.690;2023-04-25T10:30:04;7.38;;;4.80;;
27612;SDS011;15036;48.094;-1.690;2023-04-25T10:32:34;6.07;;;4.75;;
27612;SDS011;15036;48.094;-1.690;2023-04-25T10:38:08;8.85;;;4.53;;
27612;SDS011;15036;48.094;-1.690;2023-04-25T10:40:35;5.32;;;3.17;;
27612;SDS011;15036;48.094;-1.690;2023-04-25T10:46:19;6.22;;;3.92;;
27612;SDS011;15036;48.094;-1.690;2023-04-25T10:48:49;6.18;;;3.88;;
27612;SDS011;15036;48.094;-1.690;2023-04-25T10:51:20;4.90;;;3.35;;
27612;SDS011;15036;48.094;-1.690;2023-04-25T10:59:03;6.13;;;4.00;;
27612;SDS011;15036;48.094;-1.690;2023-04-25T11:01:37;6.85;;;3.40;;
27612;SDS011;15036;48.094;-1.690;2023-04-25T11:04:04;7.00;;;3.42;;
27612;SDS011;15036;48.094;-1.690;2023-04-25T11:09:37;5.78;;;3.97;;
27612;SDS011;15036;48.094;-1.690;2023-04-25T11:12:06;6.65;;;3.75;;
27612;SDS011;15036;48.094;-1.690;2023-04-25T11:14:33;6.28;;;3.80;;
27612;SDS011;15036;48.094;-1.690;2023-04-25T11:16:58;8.57;;;3.95;;
27612;SDS011;15036;48.094;-1.690;2023-04-25T11:19:25;6.57;;;3.25;;
27612;SDS011;15036;48.094;-1.690;2023-04-25T11:21:54;7.40;;;4.25;;
27612;SDS011;15036;48.094;-1.690;2023-04-25T11:24:21;7.32;;;3.63;;
27612;SDS011;15036;48.094;-1.690;2023-04-25T11:29:16;4.90;;;3.40;;
27612;SDS011;15036;48.094;-1.690;2023-04-25T11:31:44;4.10;;;3.10;;
27612;SDS011;15036;48.094;-1.690;2023-04-25T11:34:16;4.85;;;3.08;;
27612;SDS011;15036;48.094;-1.690;2023-04-25T11:36:43;4.90;;;3.63;;
27612;SDS011;15036;48.094;-1.690;2023-04-25T11:39:10;5.75;;;3.60;;
27612;SDS011;15036;48.094;-1.690;2023-04-25T11:41:37;5.13;;;3.63;;
27612;SDS011;15036;48.094;-1.690;2023-04-25T11:44:03;4.38;;;3.42;;
27612;SDS011;15036;48.094;-1.690;2023-04-25T11:46:29;5.93;;;3.70;;
27612;SDS011;15036;48.094;-1.690;2023-04-25T11:48:56;5.88;;;3.70;;
27612;SDS011;15036;48.094;-1.690;2023-04-25T11:51:22;4.97;;;3.10;;
27612;SDS011;15036;48.094;-1.690;2023-04-25T11:53:47;5.63;;;2.92;;
27612;SDS011;15036;48.094;-1.690;2023-04-25T11:56:14;5.05;;;3.10;;
27612;SDS011;15036;48.094;-1.690;2023-04-25T11:59:01;4.78;;;2.97;;
27612;SDS011;15036;48.094;-1.690;2023-04-25T12:01:29;5.72;;;3.00;;
27612;SDS011;15036;48.094;-1.690;2023-04-25T12:03:56;4.78;;;3.22;;
27612;SDS011;15036;48.094;-1.690;2023-04-25T12:06:25;5.80;;;3.03;;
27612;SDS011;15036;48.094;-1.690;2023-04-25T12:08:59;5.95;;;3.33;;
27612;SDS011;15036;48.094;-1.690;2023-04-25T12:11:32;5.05;;;3.22;;
27612;SDS011;15036;48.094;-1.690;2023-04-25T12:14:07;4.85;;;3.45;;
27612;SDS011;15036;48.094;-1.690;2023-04-25T12:16:42;5.30;;;3.47;;
27612;SDS011;15036;48.094;-1.690;2023-04-25T12:19:08;6.55;;;3.72;;
27612;SDS011;15036;48.094;-1.690;2023-04-25T12:21:35;6.28;;;3.85;;
27612;SDS011;15036;48.094;-1.690;2023-04-25T12:24:10;7.72;;;3.72;;
27612;SDS011;15036;48.094;-1.690;2023-04-25T12:26:50;5.72;;;3.63;;
27612;SDS011;15036;48.094;-1.690;2023-04-25T12:29:23;4.60;;;3.88;;
27612;SDS011;15036;48.094;-1.690;2023-04-25T12:31:50;5.68;;;3.45;;
27612;SDS011;15036;48.094;-1.690;2023-04-25T12:34:17;4.97;;;3.72;;
27612;SDS011;15036;48.094;-1.690;2023-04-25T12:36:43;5.28;;;3.50;;
27612;SDS011;15036;48.094;-1.690;2023-04-25T12:39:08;5.45;;;3.83;;
27612;SDS011;15036;48.094;-1.690;2023-04-25T12:41:40;5.32;;;3.72;;
27612;SDS011;15036;48.094;-1.690;2023-04-25T12:44:05;5.00;;;3.60;;
27612;SDS011;15036;48.094;-1.690;2023-04-25T12:46:31;5.97;;;3.90;;
27612;SDS011;15036;48.094;-1.690;2023-04-25T12:48:56;4.90;;;3.78;;
27612;SDS011;15036;48.094;-1.690;2023-04-25T12:51:22;6.28;;;3.85;;
27612;SDS011;15036;48.094;-1.690;2023-04-25T12:53:50;6.40;;;4.30;;
27612;SDS011;15036;48.094;-1.690;2023-04-25T12:56:15;6.05;;;4.15;;
27612;SDS011;15036;48.094;-1.690;2023-04-25T12:58:41;6.60;;;4.43;;
27612;SDS011;15036;48.094;-1.690;2023-04-25T13:01:09;6.38;;;4.25;;
27612;SDS011;15036;48.094;-1.690;2023-04-25T13:03:34;5.55;;;3.83;;
27612;SDS011;15036;48.094;-1.690;2023-04-25T13:05:59;6.38;;;4.32;;
27612;SDS011;15036;48.094;-1.690;2023-04-25T13:08:25;6.85;;;3.75;;
27612;SDS011;15036;48.094;-1.690;2023-04-25T13:10:51;5.95;;;4.30;;
27612;SDS011;15036;48.094;-1.690;2023-04-25T13:13:16;4.63;;;3.40;;
27612;SDS011;15036;48.094;-1.690;2023-04-25T13:15:42;4.72;;;3.50;;
27612;SDS011;15036;48.094;-1.690;2023-04-25T13:18:08;7.18;;;3.58;;
27612;SDS011;15036;48.094;-1.690;2023-04-25T13:20:33;4.80;;;3.60;;
27612;SDS011;15036;48.094;-1.690;2023-04-25T13:22:59;4.97;;;3.50;;
27612;SDS011;15036;48.094;-1.690;2023-04-25T13:25:24;6.00;;;3.38;;
27612;SDS011;15036;48.094;-1.690;2023-04-25T13:27:50;4.72;;;3.00;;
27612;SDS011;15036;48.094;-1.690;2023-04-25T13:30:15;5.32;;;3.47;;
27612;SDS011;15036;48.094;-1.690;2023-04-25T13:32:41;5.07;;;3.40;;
27612;SDS011;15036;48.094;-1.690;2023-04-25T13:35:10;5.47;;;3.17;;
27612;SDS011;15036;48.094;-1.690;2023-04-25T13:37:39;4.82;;;2.92;;
27612;SDS011;15036;48.094;-1.690;2023-04-25T13:40:08;6.07;;;3.42;;
27612;SDS011;15036;48.094;-1.690;2023-04-25T13:42:36;5.40;;;3.85;;
27612;SDS011;15036;48.094;-1.690;2023-04-25T13:45:02;5.88;;;3.28;;
27612;SDS011;15036;48.094;-1.690;2023-04-25T13:47:28;4.93;;;2.97;;
27612;SDS011;15036;48.094;-1.690;2023-04-25T13:49:54;6.50;;;3.00;;
27612;SDS011;15036;48.094;-1.690;2023-04-25T13:52:19;5.00;;;3.45;;
27612;SDS011;15036;48.094;-1.690;2023-04-25T13:54:45;4.95;;;3.80;;
27612;SDS011;15036;48.094;-1.690;2023-04-25T13:57:11;5.65;;;3.30;;
27612;SDS011;15036;48.094;-1.690;2023-04-25T13:59:37;4.25;;;3.13;;
27612;SDS011;15036;48.094;-1.690;2023-04-25T14:02:04;4.15;;;2.72;;
27612;SDS011;15036;48.094;-1.690;2023-04-25T14:04:29;3.92;;;2.70;;
27612;SDS011;15036;48.094;-1.690;2023-04-25T14:06:55;4.22;;;2.45;;
27612;SDS011;15036;48.094;-1.690;2023-04-25T14:09:21;4.50;;;2.65;;
27612;SDS011;15036;48.094;-1.690;2023-04-25T14:11:50;5.35;;;3.00;;
27612;SDS011;15036;48.094;-1.690;2023-04-25T14:14:17;3.90;;;2.70;;
27612;SDS011;15036;48.094;-1.690;2023-04-25T14:16:43;4.38;;;2.90;;
27612;SDS011;15036;48.094;-1.690;2023-04-25T14:19:08;4.32;;;3.20;;
27612;SDS011;15036;48.094;-1.690;2023-04-25T14:21:33;6.07;;;2.95;;
27612;SDS011;15036;48.094;-1.690;2023-04-25T14:24:00;4.00;;;2.80;;
27612;SDS011;15036;48.094;-1.690;2023-04-25T14:26:25;4.63;;;3.00;;
27612;SDS011;15036;48.094;-1.690;2023-04-25T14:28:51;4.13;;;2.95;;
27612;SDS011;15036;48.094;-1.690;2023-04-25T14:31:16;4.70;;;2.92;;
27612;SDS011;15036;48.094;-1.690;2023-04-25T14:33:42;4.45;;;2.97;;
27612;SDS011;15036;48.094;-1.690;2023-04-25T14:36:08;6.75;;;3.10;;
27612;SDS011;15036;48.094;-1.690;2023-04-25T14:38:33;5.93;;;3.58;;
27612;SDS011;15036;48.094;-1.690;2023-04-25T14:40:59;3.92;;;2.60;;
27612;SDS011;15036;48.094;-1.690;2023-04-25T14:43:24;4.90;;;3.08;;